Time;durP1;ratioP1;P1;durP2;ratioP2;P2;SDS_P1;SDS_P2;PMS_P1;PMS_P2;Temp;Humidity;BMP_temperature;BMP_pressure;BME280_temperature;BME280_humidity;BME280_pressure;Samples;Min_cycle;Max_cycle;Signal;HPM_P1;HPM_P2
2022/06/17 00:00:55;;;;;;;2.63;1.60;;;20.00;54.30;;;;;;5081666;28;20016;-68
2022/06/17 00:03:22;;;;;;;2.50;1.80;;;19.90;54.20;;;;;;5101781;28;20161;-68
2022/06/17 00:05:49;;;;;;;2.38;1.80;;;19.90;54.20;;;;;;5084584;28;20495;-70
2022/06/17 00:08:30;;;;;;;3.60;1.90;;;19.90;54.10;;;;;;5085133;27;20029;-69
2022/06/17 00:10:56;;;;;;;1.90;1.65;;;20.00;54.10;;;;;;5082709;28;20013;-69
2022/06/17 00:13:23;;;;;;;1.88;1.50;;;19.90;54.10;;;;;;5082006;28;20024;-67
2022/06/17 00:15:49;;;;;;;2.05;1.95;;;19.90;54.10;;;;;;5083222;28;20032;-68
2022/06/17 00:18:16;;;;;;;4.13;2.10;;;19.90;54.10;;;;;;5084446;28;20274;-68
2022/06/17 00:20:42;;;;;;;1.73;1.63;;;19.90;54.30;;;;;;5083667;28;20028;-67
2022/06/17 00:23:14;;;;;;;3.42;1.92;;;19.90;54.30;;;;;;5086295;28;20065;-68
2022/06/17 00:25:42;;;;;;;2.00;1.65;;;19.80;54.30;;;;;;5080130;28;20027;-68
2022/06/17 00:28:17;;;;;;;2.17;1.70;;;19.80;54.30;;;;;;5095845;28;20390;-68
2022/06/17 00:30:43;;;;;;;2.78;1.80;;;19.80;54.50;;;;;;5086760;28;20028;-68
2022/06/17 00:33:09;;;;;;;2.90;2.10;;;19.70;54.60;;;;;;5084811;28;20045;-68
2022/06/17 00:35:41;;;;;;;3.25;2.38;;;19.70;54.60;;;;;;5078928;28;20153;-68
2022/06/17 00:38:12;;;;;;;2.25;1.88;;;19.70;54.70;;;;;;5091160;28;20028;-68
2022/06/17 00:40:37;;;;;;;4.07;2.67;;;19.70;54.70;;;;;;5077787;28;20741;-69
2022/06/17 00:43:09;;;;;;;4.78;2.88;;;19.80;54.60;;;;;;5091330;28;20031;-68
2022/06/17 00:45:37;;;;;;;;;;;19.80;54.40;;;;;;5085973;28;20027;-68
2022/06/17 00:48:36;;;;;;;3.53;2.10;;;19.80;54.50;;;;;;5084545;28;20421;-68
2022/06/17 00:51:19;;;;;;;3.97;2.75;;;19.80;54.40;;;;;;5070350;28;20059;-67
2022/06/17 00:53:58;;;;;;;3.17;2.17;;;19.80;54.60;;;;;;5080594;28;20027;-67
2022/06/17 00:56:33;;;;;;;3.25;2.13;;;19.90;54.30;;;;;;5082063;28;20030;-68
2022/06/17 00:59:05;;;;;;;2.92;2.05;;;20.00;54.10;;;;;;5086168;28;20017;-68
2022/06/17 01:01:57;;;;;;;2.53;1.80;;;20.00;53.80;;;;;;5082977;28;20557;-68
2022/06/17 01:04:31;;;;;;;3.45;2.20;;;20.10;53.70;;;;;;5075301;28;20099;-66
2022/06/17 01:07:06;;;;;;;2.55;1.90;;;20.10;53.50;;;;;;5083581;28;20071;-67
2022/06/17 01:12:21;;;;;;;3.22;2.40;;;20.20;53.60;;;;;;5079907;28;20406;-67
2022/06/17 01:14:47;;;;;;;4.20;2.63;;;20.20;53.60;;;;;;5087191;28;20093;-69
2022/06/17 01:17:16;;;;;;;5.50;2.95;;;20.10;53.70;;;;;;5075655;28;20028;-69
2022/06/17 01:19:46;;;;;;;4.80;3.08;;;20.10;54.00;;;;;;5087891;28;20027;-68
2022/06/17 01:22:36;;;;;;;4.68;2.75;;;20.00;54.20;;;;;;5080807;28;20487;-67
2022/06/17 01:25:09;;;;;;;4.05;2.58;;;20.00;54.20;;;;;;5074477;28;20406;-68
2022/06/17 01:27:38;;;;;;;2.67;2.10;;;20.10;54.80;;;;;;5090674;28;20122;-67
2022/06/17 01:30:06;;;;;;;3.78;2.20;;;20.10;53.90;;;;;;5083085;28;20024;-68
2022/06/17 01:32:36;;;;;;;4.00;2.50;;;20.10;53.90;;;;;;5083779;28;20115;-68
2022/06/17 01:35:03;;;;;;;2.85;2.28;;;20.10;54.00;;;;;;5084643;28;20067;-68
2022/06/17 01:37:30;;;;;;;3.00;2.17;;;20.10;54.00;;;;;;5094058;28;20047;-68
2022/06/17 01:39:57;;;;;;;3.05;2.40;;;20.10;54.00;;;;;;5093090;28;20027;-69
2022/06/17 01:42:24;;;;;;;3.78;2.38;;;20.10;54.00;;;;;;5090086;28;20478;-68
2022/06/17 01:44:53;;;;;;;3.38;2.50;;;20.10;54.10;;;;;;5088506;28;20422;-68
2022/06/17 01:47:24;;;;;;;3.08;2.72;;;20.00;54.00;;;;;;5092814;28;20359;-68
2022/06/17 01:49:54;;;;;;;3.13;2.40;;;20.00;54.10;;;;;;5082508;28;20020;-68
2022/06/17 01:52:32;;;;;;;3.25;2.30;;;20.00;54.10;;;;;;5086646;28;20028;-69
2022/06/17 01:55:21;;;;;;;3.90;2.47;;;20.00;54.10;;;;;;5083501;28;20791;-67
2022/06/17 01:58:10;;;;;;;5.30;2.30;;;20.00;54.00;;;;;;5080184;28;20043;-67
2022/06/17 02:00:36;;;;;;;2.85;2.28;;;20.00;54.20;;;;;;5078315;28;20058;-69
2022/06/17 02:03:07;;;;;;;3.35;2.55;;;20.00;54.30;;;;;;5080915;28;20398;-68
2022/06/17 02:05:34;;;;;;;5.63;3.10;;;19.90;54.50;;;;;;5088216;28;20490;-68
2022/06/17 02:08:02;;;;;;;4.60;2.83;;;19.90;54.60;;;;;;5110802;28;20043;-68
2022/06/17 02:10:38;;;;;;;4.25;3.13;;;19.80;54.70;;;;;;5091340;28;20021;-67
2022/06/17 02:13:05;;;;;;;3.85;2.70;;;19.70;55.10;;;;;;5083311;28;20051;-68
2022/06/17 02:15:32;;;;;;;4.45;2.60;;;19.70;55.00;;;;;;5084641;28;20023;-68
2022/06/17 02:17:59;;;;;;;3.72;2.70;;;19.80;54.90;;;;;;5085514;28;20028;-68
2022/06/17 02:20:25;;;;;;;4.15;3.13;;;19.70;55.00;;;;;;5088481;28;20089;-67
2022/06/17 02:22:53;;;;;;;4.38;3.35;;;19.70;55.20;;;;;;5085116;28;20051;-68
2022/06/17 02:25:29;;;;;;;5.00;3.28;;;19.70;55.30;;;;;;5085370;28;20029;-68
2022/06/17 02:27:57;;;;;;;3.92;3.08;;;19.60;55.40;;;;;;5102259;28;20035;-67
2022/06/17 02:30:24;;;;;;;4.00;2.67;;;19.60;55.50;;;;;;5091600;28;20016;-68
2022/06/17 02:32:53;;;;;;;4.25;3.45;;;19.60;55.60;;;;;;5082933;28;20024;-68
2022/06/17 02:35:24;;;;;;;4.88;3.25;;;19.60;55.70;;;;;;5085393;28;20038;-69
2022/06/17 02:37:52;;;;;;;3.55;2.70;;;19.60;55.70;;;;;;5087070;28;20024;-68
2022/06/17 02:40:34;;;;;;;6.85;4.45;;;19.60;55.60;;;;;;5083640;28;20032;-69
2022/06/17 02:43:03;;;;;;;6.55;3.95;;;19.60;55.80;;;;;;5084102;28;20046;-69
2022/06/17 02:45:31;;;;;;;5.07;4.07;;;19.60;55.90;;;;;;5086212;28;20028;-68
2022/06/17 02:47:57;;;;;;;5.20;3.65;;;19.50;56.00;;;;;;5075829;28;20063;-68
2022/06/17 02:50:26;;;;;;;5.07;4.15;;;19.50;56.20;;;;;;5083009;28;20040;-68
2022/06/17 02:52:53;;;;;;;6.07;3.80;;;19.40;56.50;;;;;;5081805;28;20024;-68
2022/06/17 02:55:40;;;;;;;4.45;3.95;;;19.40;56.60;;;;;;5084551;28;20024;-69
2022/06/17 02:58:23;;;;;;;5.50;3.58;;;19.40;56.60;;;;;;5076545;28;20037;-68
2022/06/17 03:00:51;;;;;;;6.07;4.35;;;19.30;57.00;;;;;;5087084;28;20028;-69
2022/06/17 03:03:19;;;;;;;8.18;4.97;;;19.30;57.10;;;;;;5079563;28;20032;-69
2022/06/17 03:05:46;;;;;;;6.20;4.60;;;19.30;57.30;;;;;;5083059;28;20112;-68
2022/06/17 03:08:25;;;;;;;6.30;4.65;;;19.30;57.30;;;;;;5087132;28;20755;-69
2022/06/17 03:10:53;;;;;;;4.63;3.75;;;19.20;57.50;;;;;;5091692;28;20032;-69
2022/06/17 03:13:28;;;;;;;5.75;3.70;;;19.20;57.70;;;;;;5082347;28;20126;-68
2022/06/17 03:15:59;;;;;;;4.00;3.45;;;19.20;57.80;;;;;;5087478;28;20106;-67
2022/06/17 03:18:26;;;;;;;4.28;3.38;;;19.20;57.60;;;;;;5094419;28;20027;-68
2022/06/17 03:20:53;;;;;;;5.40;4.00;;;19.20;57.50;;;;;;5082594;28;20037;-67
2022/06/17 03:23:27;;;;;;;5.38;3.88;;;19.30;57.40;;;;;;5078429;28;20051;-68
2022/06/17 03:26:00;;;;;;;4.20;3.17;;;19.30;57.50;;;;;;5088304;28;20440;-68
2022/06/17 03:28:29;;;;;;;5.45;3.70;;;19.20;57.40;;;;;;5089326;28;20499;-69
2022/06/17 03:31:13;;;;;;;3.50;3.20;;;19.30;57.60;;;;;;5101308;28;20028;-67
2022/06/17 03:33:46;;;;;;;4.05;3.30;;;19.30;57.50;;;;;;5083559;28;20043;-67
2022/06/17 03:36:20;;;;;;;3.47;2.83;;;19.30;57.40;;;;;;5086573;28;20027;-66
2022/06/17 03:38:58;;;;;;;4.65;2.83;;;19.30;57.40;;;;;;5076865;28;20478;-66
2022/06/17 03:41:35;;;;;;;3.10;2.78;;;19.30;57.40;;;;;;5097063;28;20042;-66
2022/06/17 03:44:08;;;;;;;3.03;2.72;;;19.30;57.50;;;;;;5081875;28;20029;-68
2022/06/17 03:46:43;;;;;;;3.95;2.97;;;19.20;57.50;;;;;;5096445;28;20032;-67
2022/06/17 03:49:17;;;;;;;3.58;2.78;;;19.20;57.70;;;;;;5086721;28;20483;-68
2022/06/17 03:51:44;;;;;;;3.60;2.58;;;19.20;57.70;;;;;;5085798;28;20103;-68
2022/06/17 03:54:14;;;;;;;4.05;3.05;;;19.20;57.60;;;;;;5079628;28;20031;-68
2022/06/17 03:56:43;;;;;;;3.45;3.13;;;19.20;57.60;;;;;;5086014;28;20021;-67
2022/06/17 03:59:19;;;;;;;4.45;3.10;;;19.10;57.50;;;;;;5084250;28;20028;-67
2022/06/17 04:01:48;;;;;;;3.65;3.05;;;19.20;57.50;;;;;;5084887;28;20043;-67
2022/06/17 04:04:27;;;;;;;3.67;3.05;;;19.20;57.20;;;;;;5076885;28;20055;-68
2022/06/17 04:06:56;;;;;;;3.50;3.10;;;19.30;57.10;;;;;;5087976;28;20063;-67
2022/06/17 04:09:25;;;;;;;4.70;2.92;;;19.30;57.20;;;;;;5095513;28;20753;-68
2022/06/17 04:11:57;;;;;;;3.97;2.95;;;19.30;57.20;;;;;;5092938;28;20490;-68
2022/06/17 04:14:31;;;;;;;;;;;19.40;57.20;;;;;;5083673;28;20024;-69
2022/06/17 04:17:04;;;;;;;5.40;3.30;;;19.40;57.20;;;;;;5090602;28;19965;-68
2022/06/17 04:19:30;;;;;;;3.38;3.00;;;19.40;57.30;;;;;;5089998;28;20032;-67
2022/06/17 04:22:05;;;;;;;3.75;3.30;;;19.40;57.00;;;;;;5087160;28;20522;-68
2022/06/17 04:24:32;;;;;;;3.67;2.80;;;19.50;56.80;;;;;;5080729;28;20024;-67
2022/06/17 04:27:03;;;;;;;4.25;3.47;;;19.60;56.70;;;;;;5080456;28;20485;-67
2022/06/17 04:29:43;;;;;;;5.22;3.40;;;19.60;56.80;;;;;;5099625;28;20105;-67
2022/06/17 04:32:32;;;;;;;4.57;3.33;;;19.60;57.00;;;;;;5074651;28;20517;-67
2022/06/17 04:34:58;;;;;;;7.13;4.20;;;19.60;57.30;;;;;;5080805;28;20020;-67
2022/06/17 04:37:25;;;;;;;4.90;4.00;;;19.50;57.50;;;;;;5081496;28;20573;-68
2022/06/17 04:39:58;;;;;;;5.35;3.92;;;19.50;57.80;;;;;;5100958;28;20028;-68
2022/06/17 04:42:32;;;;;;;4.65;3.50;;;19.40;58.00;;;;;;5075513;28;20032;-70
2022/06/17 04:44:58;;;;;;;4.72;3.78;;;19.40;58.10;;;;;;5081405;28;20028;-68
2022/06/17 04:47:24;;;;;;;4.60;3.78;;;19.40;58.40;;;;;;5079809;28;20031;-69
2022/06/17 04:50:02;;;;;;;3.85;3.00;;;19.40;58.40;;;;;;5094297;28;20020;-67
2022/06/17 04:52:36;;;;;;;5.68;4.20;;;19.50;58.10;;;;;;5082519;28;20043;-69
2022/06/17 04:55:05;;;;;;;5.75;4.13;;;19.50;58.40;;;;;;5079288;28;20390;-68
2022/06/17 04:57:31;;;;;;;4.90;3.75;;;19.40;58.60;;;;;;5094127;28;20027;-68
2022/06/17 04:59:59;;;;;;;5.85;4.22;;;19.50;58.40;;;;;;5088200;28;20060;-68
2022/06/17 05:02:28;;;;;;;6.28;3.15;;;19.60;58.30;;;;;;5079809;28;20089;-69
2022/06/17 05:05:00;;;;;;;5.30;3.85;;;19.60;58.10;;;;;;5088772;28;20568;-68
2022/06/17 05:07:27;;;;;;;;;;;19.60;58.00;;;;;;5089041;28;20039;-69
2022/06/17 05:10:01;;;;;;;4.20;3.30;;;19.50;58.10;;;;;;5092931;28;19946;-69
2022/06/17 05:12:34;;;;;;;4.90;3.90;;;19.50;58.00;;;;;;5086733;28;20571;-69
2022/06/17 05:15:16;;;;;;;5.72;3.50;;;19.60;58.10;;;;;;5084635;28;20539;-68
2022/06/17 05:17:41;;;;;;;;;;;19.70;57.90;;;;;;5092021;28;20024;-69
2022/06/17 05:20:12;;;;;;;3.80;2.90;;;19.80;57.50;;;;;;5086351;28;19991;-68
2022/06/17 05:22:46;;;;;;;3.88;3.00;;;19.90;57.20;;;;;;5070825;28;20032;-68
2022/06/17 05:25:20;;;;;;;3.45;3.00;;;19.90;56.90;;;;;;5093713;28;20025;-68
2022/06/17 05:27:46;;;;;;;5.90;3.78;;;20.00;56.70;;;;;;5094212;28;20651;-68
2022/06/17 05:30:12;;;;;;;3.28;2.47;;;20.10;56.30;;;;;;5091277;28;20043;-68
2022/06/17 05:32:42;;;;;;;4.18;2.65;;;20.20;56.10;;;;;;5079113;28;20013;-68
2022/06/17 05:35:08;;;;;;;4.68;3.40;;;20.20;55.90;;;;;;5090685;28;20057;-67
2022/06/17 05:37:33;;;;;;;4.70;3.17;;;20.20;55.80;;;;;;5091023;28;20020;-68
2022/06/17 05:39:59;;;;;;;4.68;3.10;;;20.30;55.70;;;;;;5113260;28;20023;-67
2022/06/17 05:42:27;;;;;;;4.95;3.20;;;20.30;55.50;;;;;;5085516;28;20044;-67
2022/06/17 05:44:52;;;;;;;5.20;3.25;;;20.60;55.50;;;;;;5099299;28;20032;-68
2022/06/17 05:47:18;;;;;;;3.63;2.75;;;21.10;54.80;;;;;;5086500;28;20494;-70
2022/06/17 05:49:43;;;;;;;5.03;3.72;;;21.40;54.10;;;;;;5091398;28;20386;-68
2022/06/17 05:52:12;;;;;;;5.00;3.42;;;21.50;53.40;;;;;;5082301;28;20115;-67
2022/06/17 05:54:37;;;;;;;5.78;3.38;;;21.70;53.20;;;;;;5077465;28;20031;-66
2022/06/17 05:57:03;;;;;;;3.00;2.50;;;21.80;52.70;;;;;;5083506;28;20089;-67
2022/06/17 05:59:29;;;;;;;3.85;2.50;;;22.10;52.30;;;;;;5085232;28;20477;-67
2022/06/17 06:01:55;;;;;;;2.97;2.40;;;22.20;51.80;;;;;;5082777;28;20028;-66
2022/06/17 06:04:21;;;;;;;5.93;3.53;;;22.40;51.30;;;;;;5075300;28;20024;-67
2022/06/17 06:06:47;;;;;;;4.90;2.90;;;22.50;50.70;;;;;;5088018;28;20085;-67
2022/06/17 06:09:13;;;;;;;4.85;3.40;;;22.60;50.40;;;;;;5079483;28;20381;-67
2022/06/17 06:11:39;;;;;;;4.75;2.80;;;22.70;50.40;;;;;;5078094;28;20028;-67
2022/06/17 06:14:04;;;;;;;4.35;2.75;;;23.00;50.20;;;;;;5083388;28;20037;-68
2022/06/17 06:16:30;;;;;;;2.92;2.40;;;23.20;49.60;;;;;;5083113;28;20034;-68
2022/06/17 06:18:56;;;;;;;3.92;2.75;;;23.30;49.30;;;;;;5078514;28;20091;-68
2022/06/17 06:21:22;;;;;;;5.68;3.13;;;23.40;49.00;;;;;;5081070;28;20130;-67
2022/06/17 06:23:47;;;;;;;6.80;3.00;;;23.50;48.70;;;;;;5092369;28;20545;-67
2022/06/17 06:26:16;;;;;;;4.80;3.13;;;23.40;48.80;;;;;;5102252;28;20026;-68
2022/06/17 06:28:42;;;;;;;5.97;3.15;;;23.40;48.90;;;;;;5086892;28;20034;-68
2022/06/17 06:31:21;;;;;;;3.33;2.40;;;23.50;48.90;;;;;;5079469;28;20035;-67
2022/06/17 06:33:47;;;;;;;4.18;3.17;;;23.60;48.60;;;;;;5091149;28;20067;-66
2022/06/17 06:36:12;;;;;;;4.18;2.88;;;23.30;48.40;;;;;;5083909;28;20077;-66
2022/06/17 06:38:38;;;;;;;4.00;2.80;;;23.10;48.80;;;;;;5087027;28;20479;-67
2022/06/17 06:41:04;;;;;;;5.28;3.40;;;23.10;48.90;;;;;;5085509;28;20024;-67
2022/06/17 06:43:30;;;;;;;4.35;2.25;;;23.00;49.10;;;;;;5081528;28;20030;-67
2022/06/17 06:45:56;;;;;;;4.30;2.65;;;23.10;49.20;;;;;;5088161;28;20077;-67
2022/06/17 06:48:24;;;;;;;4.78;3.03;;;23.20;49.40;;;;;;5085819;28;20078;-66
2022/06/17 06:50:50;;;;;;;4.82;3.00;;;23.30;49.20;;;;;;5080187;28;20051;-68
2022/06/17 06:53:15;;;;;;;5.45;2.88;;;23.50;49.30;;;;;;5080661;28;20028;-66
2022/06/17 06:55:41;;;;;;;4.70;2.90;;;23.60;48.60;;;;;;5087766;28;20047;-66
2022/06/17 06:58:11;;;;;;;3.58;2.63;;;23.80;48.20;;;;;;5083439;28;20503;-66
2022/06/17 07:00:49;;;;;;;3.58;2.88;;;23.90;48.10;;;;;;5083922;28;20694;-67
2022/06/17 07:03:17;;;;;;;3.63;2.40;;;23.80;48.10;;;;;;5084833;28;20494;-67
2022/06/17 07:05:46;;;;;;;4.30;3.15;;;23.90;48.20;;;;;;5090747;28;20406;-67
2022/06/17 07:08:13;;;;;;;4.45;2.90;;;23.80;47.80;;;;;;5092036;28;20035;-67
2022/06/17 07:10:40;;;;;;;5.85;2.67;;;23.70;47.90;;;;;;5090336;28;20382;-68
2022/06/17 07:13:08;;;;;;;4.40;2.67;;;23.70;48.20;;;;;;5078810;28;20039;-67
2022/06/17 07:15:34;;;;;;;3.47;2.40;;;23.70;48.20;;;;;;5082096;28;20111;-67
2022/06/17 07:18:09;;;;;;;2.60;2.30;;;23.80;48.20;;;;;;5085646;28;20020;-67
2022/06/17 07:20:46;;;;;;;3.78;2.50;;;24.00;48.00;;;;;;5086191;28;20038;-67
2022/06/17 07:23:16;;;;;;;3.97;2.22;;;24.10;47.30;;;;;;5087251;28;20032;-67
2022/06/17 07:25:42;;;;;;;3.28;2.20;;;24.20;47.30;;;;;;5085351;28;20021;-67
2022/06/17 07:28:11;;;;;;;5.78;2.38;;;24.40;47.10;;;;;;5093887;28;20106;-67
2022/06/17 07:30:36;;;;;;;3.60;2.30;;;24.50;46.30;;;;;;5085209;28;20024;-67
2022/06/17 07:33:02;;;;;;;3.00;2.20;;;24.50;46.30;;;;;;5075871;28;20024;-67
2022/06/17 07:35:28;;;;;;;3.88;2.25;;;24.50;46.00;;;;;;5085535;28;20020;-67
2022/06/17 07:40:39;;;;;;;3.63;2.20;;;24.50;45.90;;;;;;5075150;28;20123;-67
2022/06/17 07:43:05;;;;;;;4.05;2.10;;;24.50;46.10;;;;;;5077072;28;20783;-67
2022/06/17 07:45:31;;;;;;;5.40;2.60;;;24.50;46.20;;;;;;5077488;28;20115;-67
2022/06/17 07:47:58;;;;;;;3.75;1.90;;;24.60;46.40;;;;;;5082662;28;20051;-67
2022/06/17 07:50:31;;;;;;;3.83;2.25;;;24.80;46.40;;;;;;5084849;28;20504;-67
2022/06/17 07:52:57;;;;;;;3.60;2.10;;;24.90;46.20;;;;;;5084545;28;20590;-68
2022/06/17 07:55:22;;;;;;;1.90;1.50;;;25.00;46.20;;;;;;5086430;28;20170;-68
2022/06/17 07:57:48;;;;;;;4.13;1.90;;;25.20;46.10;;;;;;5082557;28;20064;-67
2022/06/17 08:00:37;;;;;;;2.90;1.90;;;25.40;45.20;;;;;;5086008;28;20062;-68
2022/06/17 08:03:04;;;;;;;3.72;2.20;;;25.50;44.10;;;;;;5082138;28;20058;-67
2022/06/17 08:05:31;;;;;;;3.40;1.83;;;25.50;44.00;;;;;;5081254;28;20028;-67
2022/06/17 08:07:57;;;;;;;3.85;2.00;;;25.70;43.90;;;;;;5081124;28;20269;-68
2022/06/17 08:10:26;;;;;;;2.63;1.75;;;25.80;43.70;;;;;;5088422;28;20047;-67
2022/06/17 08:12:52;;;;;;;2.97;1.77;;;25.80;43.60;;;;;;5082547;28;20038;-67
2022/06/17 08:15:18;;;;;;;3.58;2.17;;;26.00;43.80;;;;;;5081450;28;20028;-68
2022/06/17 08:17:44;;;;;;;4.72;2.80;;;26.00;42.90;;;;;;5084709;28;20028;-68
2022/06/17 08:20:18;;;;;;;4.95;2.53;;;25.90;42.40;;;;;;5099447;28;20040;-67
2022/06/17 08:22:44;;;;;;;4.55;1.90;;;25.90;42.70;;;;;;5094831;28;20020;-68
2022/06/17 08:25:10;;;;;;;3.22;2.20;;;25.70;43.10;;;;;;5083555;28;20038;-67
2022/06/17 08:27:43;;;;;;;3.25;2.20;;;25.90;43.30;;;;;;5090590;28;20031;-67
2022/06/17 08:30:10;;;;;;;3.17;2.50;;;26.00;43.30;;;;;;5083394;28;20352;-67
2022/06/17 08:32:45;;;;;;;4.20;2.80;;;26.20;43.20;;;;;;5082610;28;20438;-67
2022/06/17 08:35:11;;;;;;;4.35;2.53;;;26.10;42.90;;;;;;5086217;28;20509;-66
2022/06/17 08:37:37;;;;;;;3.28;2.20;;;26.10;43.10;;;;;;5088495;28;20077;-67
2022/06/17 08:40:28;;;;;;;3.88;2.50;;;26.20;43.20;;;;;;5088071;28;20472;-67
2022/06/17 08:43:15;;;;;;;4.38;2.28;;;26.30;43.20;;;;;;5061823;28;20032;-67
2022/06/17 08:46:07;;;;;;;2.40;2.03;;;26.50;43.10;;;;;;5089280;28;20028;-66
2022/06/17 08:48:47;;;;;;;3.20;2.45;;;26.50;43.10;;;;;;5083602;28;20036;-67
2022/06/17 08:51:28;;;;;;;2.83;1.85;;;26.60;42.50;;;;;;5089592;28;20081;-66
2022/06/17 08:54:07;;;;;;;4.53;2.20;;;26.60;42.10;;;;;;5082905;28;20110;-67
2022/06/17 08:56:54;;;;;;;4.10;2.20;;;26.50;41.20;;;;;;5079527;28;20112;-67
2022/06/17 08:59:25;;;;;;;3.58;2.33;;;26.50;42.10;;;;;;5086302;28;20037;-67
2022/06/17 09:01:57;;;;;;;4.32;2.00;;;26.50;41.70;;;;;;5083270;28;20074;-66
2022/06/17 09:04:43;;;;;;;3.42;1.73;;;26.60;41.60;;;;;;5086924;28;20122;-66
2022/06/17 09:07:17;;;;;;;3.42;2.35;;;26.70;41.70;;;;;;5083094;28;20597;-66
2022/06/17 09:09:49;;;;;;;5.03;2.15;;;26.70;41.10;;;;;;5090530;28;20474;-66
2022/06/17 09:12:33;;;;;;;2.90;1.88;;;26.80;41.10;;;;;;5085282;28;20077;-66
2022/06/17 09:15:14;;;;;;;3.83;1.90;;;26.90;40.80;;;;;;5078427;28;20486;-67
2022/06/17 09:18:00;;;;;;;3.63;2.00;;;27.00;40.80;;;;;;5089371;28;20012;-67
2022/06/17 09:20:35;;;;;;;4.25;2.20;;;27.00;40.40;;;;;;5082938;28;20025;-68
2022/06/17 09:23:03;;;;;;;3.90;2.10;;;27.20;40.40;;;;;;5081831;28;20036;-67
2022/06/17 09:25:38;;;;;;;3.53;2.35;;;27.30;40.00;;;;;;5080431;28;20031;-68
2022/06/17 09:28:06;;;;;;;4.63;1.95;;;27.30;39.70;;;;;;5084034;28;20032;-68
2022/06/17 09:30:37;;;;;;;2.47;1.80;;;27.30;39.80;;;;;;5087476;28;20029;-66
2022/06/17 09:33:08;;;;;;;3.30;1.80;;;27.40;40.00;;;;;;5089713;28;20016;-67
2022/06/17 09:35:40;;;;;;;3.90;1.88;;;27.50;39.80;;;;;;5088536;28;20031;-67
2022/06/17 09:38:11;;;;;;;3.10;1.73;;;27.60;39.40;;;;;;5098337;28;20039;-66
2022/06/17 09:40:46;;;;;;;3.58;1.90;;;27.60;39.40;;;;;;5089574;28;20604;-66
2022/06/17 09:43:43;;;;;;;3.45;2.10;;;27.70;39.30;;;;;;5106666;28;20111;-67
2022/06/17 09:46:21;;;;;;;2.72;1.70;;;27.70;39.50;;;;;;5079087;28;20615;-67
2022/06/17 09:49:12;;;;;;;2.55;1.90;;;27.80;39.10;;;;;;5086781;28;20542;-67
2022/06/17 09:51:46;;;;;;;2.47;1.58;;;27.70;38.80;;;;;;5081987;28;20471;-67
2022/06/17 09:54:34;;;;;;;4.03;1.90;;;27.90;39.20;;;;;;5096849;28;20035;-67
2022/06/17 09:57:30;;;;;;;3.72;1.92;;;27.90;38.80;;;;;;5075359;28;20402;-67
2022/06/17 10:00:03;;;;;;;2.95;1.75;;;28.00;38.00;;;;;;5083520;28;20023;-67
2022/06/17 10:03:04;;;;;;;2.92;1.60;;;28.00;38.30;;;;;;5077719;28;20090;-68
2022/06/17 10:05:47;;;;;;;2.92;1.70;;;28.10;38.40;;;;;;5071222;28;20111;-68
2022/06/17 10:08:40;;;;;;;3.35;1.90;;;28.10;38.30;;;;;;5078146;28;20021;-68
2022/06/17 10:11:21;;;;;;;3.88;1.90;;;28.30;38.20;;;;;;5086245;28;20023;-69
2022/06/17 10:13:59;;;;;;;2.60;1.75;;;28.40;38.10;;;;;;5087954;28;20016;-67
2022/06/17 10:19:18;;;;;;;3.47;1.80;;;28.50;37.40;;;;;;5083970;28;20039;-67
2022/06/17 10:22:04;;;;;;;3.08;1.60;;;28.50;37.40;;;;;;5085595;28;20025;-68
2022/06/17 10:24:48;;;;;;;3.67;2.60;;;28.70;37.60;;;;;;5092050;28;20024;-66
2022/06/17 10:27:41;;;;;;;4.80;2.50;;;28.60;36.70;;;;;;5082751;28;20024;-66
2022/06/17 10:30:16;;;;;;;2.72;1.60;;;28.50;37.10;;;;;;5078201;28;20060;-67
2022/06/17 10:32:46;;;;;;;3.50;2.28;;;28.50;37.20;;;;;;5074845;28;20112;-67
2022/06/17 10:35:36;;;;;;;3.20;1.95;;;28.50;37.10;;;;;;5072342;28;20029;-67
2022/06/17 10:38:05;;;;;;;3.10;2.08;;;28.50;37.30;;;;;;5075051;28;20031;-66
2022/06/17 10:40:34;;;;;;;5.47;2.30;;;28.60;37.30;;;;;;5088700;28;20024;-68
2022/06/17 10:43:06;;;;;;;3.78;2.35;;;28.70;37.10;;;;;;5080251;28;20024;-67
2022/06/17 10:45:34;;;;;;;5.05;2.15;;;28.70;38.00;;;;;;5075396;28;20080;-67
2022/06/17 10:48:22;;;;;;;3.30;2.10;;;28.70;37.00;;;;;;5083348;28;20494;-67
2022/06/17 10:50:47;;;;;;;4.97;2.33;;;28.70;36.30;;;;;;5074461;28;20020;-67
2022/06/17 10:53:25;;;;;;;2.70;1.70;;;28.70;35.80;;;;;;5079056;28;20025;-67
2022/06/17 10:55:57;;;;;;;3.03;2.13;;;28.80;36.40;;;;;;5081386;28;20021;-66
2022/06/17 10:58:33;;;;;;;2.80;1.73;;;29.00;35.80;;;;;;5085846;28;20028;-65
2022/06/17 11:01:07;;;;;;;2.35;1.65;;;29.10;36.10;;;;;;5086323;28;20024;-65
2022/06/17 11:03:35;;;;;;;3.55;1.70;;;29.30;36.00;;;;;;5082481;28;20032;-68
2022/06/17 11:06:09;;;;;;;3.33;1.92;;;29.50;35.60;;;;;;5087322;28;20020;-68
2022/06/17 11:08:55;;;;;;;4.40;2.60;;;29.60;35.40;;;;;;5080179;28;20028;-66
2022/06/17 11:14:29;;;;;;;7.07;2.22;;;29.70;35.00;;;;;;5083040;28;20054;-67
2022/06/17 11:16:55;;;;;;;2.22;1.50;;;29.60;35.00;;;;;;5082243;28;20043;-66
2022/06/17 11:19:23;;;;;;;6.38;2.20;;;29.80;35.40;;;;;;5079742;28;20031;-66
2022/06/17 11:21:55;;;;;;;4.75;2.00;;;29.80;34.60;;;;;;5086306;28;20494;-66
2022/06/17 11:24:38;;;;;;;2.00;1.60;;;29.70;34.50;;;;;;5078981;28;20110;-66
2022/06/17 11:27:38;;;;;;;4.43;1.85;;;29.80;34.80;;;;;;5086926;28;20100;-66
2022/06/17 11:30:19;;;;;;;3.50;1.77;;;29.90;34.20;;;;;;5079834;28;20028;-67
2022/06/17 11:32:45;;;;;;;4.65;2.50;;;29.90;34.60;;;;;;5086841;28;20027;-68
2022/06/17 11:35:23;;;;;;;2.90;1.90;;;29.70;34.10;;;;;;5080903;28;20501;-66
2022/06/17 11:37:50;;;;;;;3.20;1.70;;;29.80;34.50;;;;;;5073842;28;20073;-68
2022/06/17 11:40:20;;;;;;;3.10;1.80;;;29.90;34.30;;;;;;5077415;28;20032;-68
2022/06/17 11:43:03;;;;;;;2.83;1.70;;;30.00;34.10;;;;;;5089063;28;20669;-67
2022/06/17 11:45:31;;;;;;;3.72;1.90;;;30.20;34.00;;;;;;5072818;28;20111;-67
2022/06/17 11:48:11;;;;;;;5.00;1.90;;;30.30;33.70;;;;;;5079793;28;20070;-67
2022/06/17 11:50:42;;;;;;;4.13;1.70;;;30.50;33.50;;;;;;5075939;28;20111;-67
2022/06/17 11:53:11;;;;;;;4.05;1.70;;;30.70;33.00;;;;;;5080586;28;20107;-66
2022/06/17 11:55:49;;;;;;;1.80;1.40;;;30.80;32.40;;;;;;5074745;28;20095;-66
2022/06/17 11:58:19;;;;;;;2.92;1.40;;;30.70;32.20;;;;;;5076858;28;20033;-67
2022/06/17 12:00:57;;;;;;;2.95;1.65;;;30.40;32.40;;;;;;5089174;27;20378;-67
2022/06/17 12:03:44;;;;;;;3.55;2.10;;;30.50;32.50;;;;;;5076129;28;20063;-67
2022/06/17 12:06:24;;;;;;;3.25;1.77;;;30.40;32.10;;;;;;5075219;28;20032;-67
2022/06/17 12:09:15;;;;;;;5.72;3.00;;;30.20;32.30;;;;;;5071575;28;20031;-67
2022/06/17 12:11:56;;;;;;;4.30;2.10;;;30.20;31.90;;;;;;5071953;28;20162;-68
2022/06/17 12:14:34;;;;;;;4.68;2.20;;;30.40;32.40;;;;;;5093691;28;20045;-67
2022/06/17 12:17:00;;;;;;;3.35;2.10;;;30.70;32.40;;;;;;5076512;28;20032;-67
2022/06/17 12:19:26;;;;;;;3.33;2.60;;;31.00;32.30;;;;;;5080936;28;20023;-66
2022/06/17 12:22:14;;;;;;;3.65;2.00;;;31.00;31.80;;;;;;5078145;28;20032;-67
2022/06/17 12:24:49;;;;;;;3.03;1.63;;;31.20;32.00;;;;;;5086064;28;20036;-67
2022/06/17 12:27:30;;;;;;;2.05;1.60;;;31.60;32.10;;;;;;5079362;28;20021;-67
2022/06/17 12:30:04;;;;;;;2.83;2.00;;;32.00;31.80;;;;;;5086291;28;20035;-66
2022/06/17 12:33:10;;;;;;;2.55;1.67;;;32.20;31.50;;;;;;5075442;28;20485;-66
2022/06/17 12:35:45;;;;;;;7.38;2.42;;;32.40;31.40;;;;;;5067797;28;20039;-67
2022/06/17 12:38:24;;;;;;;2.72;2.10;;;32.40;30.30;;;;;;5077589;28;20025;-67
2022/06/17 12:41:21;;;;;;;2.35;1.45;;;32.30;30.40;;;;;;5086856;28;20033;-67
2022/06/17 12:44:09;;;;;;;5.88;2.30;;;32.50;30.60;;;;;;5078318;28;20064;-68
2022/06/17 12:47:11;;;;;;;4.30;2.70;;;32.60;30.70;;;;;;5092127;28;20019;-68
2022/06/17 12:53:35;;;;;;;5.18;2.95;;;32.40;30.80;;;;;;5075648;28;20039;-67
2022/06/17 12:55:57;;;;;;;2.85;2.17;;;32.50;30.70;;;;;;5087335;28;20039;-67
2022/06/17 12:58:41;;;;;;;4.88;1.80;;;32.50;30.70;;;;;;5104757;28;20035;-67
2022/06/17 13:01:13;;;;;;;4.30;2.92;;;32.70;30.70;;;;;;5073610;28;20377;-68
2022/06/17 13:03:56;;;;;;;4.03;2.15;;;32.50;30.00;;;;;;5079408;28;20032;-68
2022/06/17 13:06:48;;;;;;;3.25;2.25;;;32.50;30.50;;;;;;5080008;28;20028;-68
2022/06/17 13:09:28;;;;;;;3.78;2.03;;;32.30;30.70;;;;;;5076216;28;20042;-67
2022/06/17 13:12:12;;;;;;;2.25;1.85;;;32.40;30.90;;;;;;5105754;28;20024;-66
2022/06/17 13:14:48;;;;;;;4.00;2.50;;;32.50;30.90;;;;;;5085356;28;20020;-67
2022/06/17 13:17:29;;;;;;;5.18;2.72;;;32.70;30.30;;;;;;5100259;28;20081;-66
2022/06/17 13:20:22;;;;;;;4.15;2.80;;;32.50;30.10;;;;;;5092600;28;20431;-67
2022/06/17 13:23:05;;;;;;;4.07;2.88;;;32.50;30.10;;;;;;5084003;28;20082;-67
2022/06/17 13:25:37;;;;;;;2.78;1.98;;;32.40;30.10;;;;;;5097163;28;20054;-67
2022/06/17 13:28:09;;;;;;;4.13;3.03;;;32.60;30.40;;;;;;5080545;28;20024;-66
2022/06/17 13:30:54;;;;;;;4.35;2.40;;;32.80;30.00;;;;;;5088351;28;20024;-67
2022/06/17 13:33:29;;;;;;;2.65;1.70;;;32.60;30.00;;;;;;5080302;28;20016;-66